createdAt,value
2018-12-19T00:02:07.840Z,18.07
2018-12-19T00:04:36.877Z,18.07
2018-12-19T00:07:06.026Z,18.93
2018-12-19T00:09:35.012Z,18.67
2018-12-19T00:12:04.445Z,17.83
2018-12-19T00:14:33.517Z,18.30
2018-12-19T00:17:02.721Z,18.93
2018-12-19T00:19:31.938Z,17.33
2018-12-19T00:22:01.056Z,17.97
2018-12-19T00:24:30.335Z,17.20
2018-12-19T00:26:59.515Z,17.73
2018-12-19T00:29:29.036Z,17.67
2018-12-19T00:31:57.965Z,17.00
2018-12-19T00:34:27.243Z,17.10
2018-12-19T00:36:56.453Z,16.67
2018-12-19T00:39:25.558Z,16.87
2018-12-19T00:41:54.624Z,16.67
2018-12-19T00:44:23.992Z,16.83
2018-12-19T00:46:53.624Z,16.90
2018-12-19T00:49:22.657Z,18.03
2018-12-19T00:51:51.841Z,15.50
2018-12-19T00:54:20.790Z,16.10
2018-12-19T00:56:49.962Z,15.77
2018-12-19T00:59:18.948Z,18.50
2018-12-19T01:01:48.263Z,18.43
2018-12-19T01:04:17.257Z,17.03
2018-12-19T01:06:46.398Z,17.27
2018-12-19T01:09:16.060Z,15.87
2018-12-19T01:11:45.121Z,17.07
2018-12-19T01:14:14.446Z,17.50
2018-12-19T01:16:43.858Z,17.77
2018-12-19T01:19:12.787Z,16.83
2018-12-19T01:21:41.768Z,17.53
2018-12-19T01:24:10.757Z,18.50
2018-12-19T01:26:39.667Z,17.97
2018-12-19T01:29:08.647Z,17.63
2018-12-19T01:31:37.594Z,18.20
2018-12-19T01:34:06.655Z,17.10
2018-12-19T01:36:35.624Z,17.63
2018-12-19T01:39:07.475Z,18.60
2018-12-19T01:41:37.185Z,17.93
2018-12-19T01:44:06.497Z,16.70
2018-12-19T01:46:36.531Z,18.00
2018-12-19T01:49:06.006Z,17.23
2018-12-19T01:51:35.507Z,16.57
2018-12-19T01:54:04.892Z,17.63
2018-12-19T01:56:34.346Z,17.23
2018-12-19T01:59:03.565Z,17.43
2018-12-19T02:01:32.683Z,17.27
2018-12-19T02:04:01.726Z,18.07
2018-12-19T02:06:31.016Z,17.30
2018-12-19T02:09:00.251Z,16.97
2018-12-19T02:11:29.239Z,17.33
2018-12-19T02:13:58.215Z,16.37
2018-12-19T02:16:27.401Z,17.13
2018-12-19T02:18:56.524Z,17.27
2018-12-19T02:21:25.715Z,18.20
2018-12-19T02:23:55.369Z,17.07
2018-12-19T02:26:24.742Z,15.93
2018-12-19T02:28:55.115Z,16.80
2018-12-19T02:31:24.631Z,17.00
2018-12-19T02:33:54.928Z,16.77
2018-12-19T02:36:24.082Z,17.47
2018-12-19T02:38:53.446Z,16.10
2018-12-19T02:41:22.774Z,16.93
2018-12-19T02:43:51.880Z,16.97
2018-12-19T02:46:21.062Z,16.73
2018-12-19T02:48:51.096Z,17.20
2018-12-19T02:51:20.275Z,17.50
2018-12-19T02:53:49.508Z,17.87
2018-12-19T02:56:18.706Z,17.10
2018-12-19T02:58:48.067Z,16.37
2018-12-19T03:01:17.495Z,18.17
2018-12-19T03:03:46.974Z,16.87
2018-12-19T03:06:16.502Z,18.13
2018-12-19T03:08:45.865Z,17.93
2018-12-19T03:11:16.353Z,17.43
2018-12-19T03:13:48.590Z,18.73
2018-12-19T03:16:17.794Z,17.73
2018-12-19T03:18:47.142Z,19.17
2018-12-19T03:21:16.514Z,18.67
2018-12-19T03:23:45.927Z,19.20
2018-12-19T03:26:15.202Z,19.20
2018-12-19T03:28:44.160Z,18.67
2018-12-19T03:31:13.195Z,18.33
2018-12-19T03:33:42.265Z,17.70
2018-12-19T03:36:11.815Z,18.53
2018-12-19T03:38:40.933Z,18.00
2018-12-19T03:41:11.037Z,19.30
2018-12-19T03:43:40.026Z,19.20
2018-12-19T03:46:09.159Z,18.40
2018-12-19T03:48:43.727Z,19.03
2018-12-19T03:51:12.895Z,19.17
2018-12-19T03:53:41.865Z,18.27
2018-12-19T03:56:10.871Z,19.00
2018-12-19T03:58:39.827Z,20.07
2018-12-19T04:01:08.767Z,19.33
2018-12-19T04:03:38.227Z,20.07
2018-12-19T04:06:07.255Z,19.73
2018-12-19T04:08:36.459Z,21.23
2018-12-19T04:11:05.740Z,21.07
2018-12-19T04:13:34.708Z,19.70
2018-12-19T04:16:04.054Z,20.50
2018-12-19T04:18:33.423Z,19.03
2018-12-19T04:21:02.429Z,21.07
2018-12-19T04:23:32.083Z,21.03
2018-12-19T04:26:01.257Z,20.30
2018-12-19T04:28:30.538Z,20.37
2018-12-19T04:30:59.499Z,20.90
2018-12-19T04:33:28.555Z,20.57
2018-12-19T04:35:57.557Z,20.07
2018-12-19T04:38:26.714Z,20.93
2018-12-19T04:40:55.934Z,19.23
2018-12-19T04:43:25.087Z,22.37
2018-12-19T04:45:56.924Z,22.07
2018-12-19T04:48:25.864Z,22.10
2018-12-19T04:50:55.074Z,20.50
2018-12-19T04:53:24.373Z,22.23
2018-12-19T04:55:53.679Z,20.17
2018-12-19T04:58:22.599Z,21.07
2018-12-19T05:00:51.540Z,21.07
2018-12-19T05:03:20.609Z,21.60
2018-12-19T05:05:49.557Z,21.20
2018-12-19T05:08:18.801Z,22.43
2018-12-19T05:10:47.798Z,20.73
2018-12-19T05:13:16.806Z,21.90
2018-12-19T05:15:45.952Z,21.10
2018-12-19T05:18:14.893Z,21.47
2018-12-19T05:20:44.115Z,22.03
2018-12-19T05:23:13.025Z,21.93
2018-12-19T05:25:42.211Z,20.87
2018-12-19T05:28:12.832Z,22.77
2018-12-19T05:30:42.047Z,22.33
2018-12-19T05:33:11.261Z,23.07
2018-12-19T05:35:40.222Z,22.23
2018-12-19T05:38:09.431Z,23.57
2018-12-19T05:40:38.582Z,22.53
2018-12-19T05:43:07.679Z,22.13
2018-12-19T05:45:36.613Z,21.60
2018-12-19T05:48:06.129Z,22.23
2018-12-19T05:50:35.381Z,23.60
2018-12-19T05:53:04.987Z,22.57
2018-12-19T05:55:36.659Z,24.80
2018-12-19T05:58:05.580Z,24.17
2018-12-19T06:00:35.108Z,25.40
2018-12-19T06:03:04.177Z,24.63
2018-12-19T06:05:33.900Z,25.50
2018-12-19T06:08:02.952Z,25.63
2018-12-19T06:10:32.223Z,24.53
2018-12-19T06:13:01.702Z,24.03
2018-12-19T06:15:30.938Z,25.07
2018-12-19T06:18:00.289Z,26.33
2018-12-19T06:20:29.437Z,24.10
2018-12-19T06:22:58.437Z,26.63
2018-12-19T06:25:27.648Z,25.03
2018-12-19T06:27:57.319Z,27.20
2018-12-19T06:30:27.174Z,27.67
2018-12-19T06:32:56.411Z,25.20
2018-12-19T06:35:25.725Z,24.97
2018-12-19T06:37:55.417Z,25.97
2018-12-19T06:40:25.209Z,25.70
2018-12-19T06:42:55.040Z,25.20
2018-12-19T06:45:24.220Z,26.07
2018-12-19T06:47:53.735Z,26.97
2018-12-19T06:50:22.850Z,26.30
2018-12-19T06:52:52.191Z,24.30
2018-12-19T06:55:21.527Z,24.67
2018-12-19T06:57:50.674Z,28.20
2018-12-19T07:00:19.699Z,25.80
2018-12-19T07:02:50.525Z,25.57
2018-12-19T07:05:19.637Z,27.83
2018-12-19T07:07:48.714Z,27.53
2018-12-19T07:10:17.741Z,26.23
2018-12-19T07:12:46.963Z,27.70
2018-12-19T07:15:16.035Z,27.17
2018-12-19T07:17:45.453Z,28.43
2018-12-19T07:20:14.557Z,27.57
2018-12-19T07:22:44.025Z,29.43
2018-12-19T07:25:13.348Z,27.80
2018-12-19T07:27:42.827Z,26.97
2018-12-19T07:30:12.040Z,27.43
2018-12-19T07:32:41.525Z,26.50
2018-12-19T07:35:10.911Z,27.27
2018-12-19T07:37:40.327Z,26.90
2018-12-19T07:40:10.582Z,27.37
2018-12-19T07:42:39.717Z,26.53
2018-12-19T07:45:08.868Z,27.43
2018-12-19T07:47:38.112Z,25.87
2018-12-19T07:50:07.382Z,27.50
2018-12-19T07:52:36.656Z,26.97
2018-12-19T07:55:05.944Z,29.57
2018-12-19T07:57:35.557Z,26.97
2018-12-19T08:00:05.780Z,26.17
2018-12-19T08:02:35.400Z,26.43
2018-12-19T08:05:05.337Z,27.90
2018-12-19T08:07:34.718Z,26.67
2018-12-19T08:10:04.867Z,26.37
2018-12-19T08:12:36.228Z,25.80
2018-12-19T08:15:05.792Z,25.97
2018-12-19T08:17:35.271Z,24.10
2018-12-19T08:20:05.376Z,24.97
2018-12-19T08:22:34.735Z,24.27
2018-12-19T08:25:04.321Z,25.53
2018-12-19T08:27:33.944Z,23.83
2018-12-19T08:30:04.432Z,26.00
2018-12-19T08:32:33.836Z,24.90
2018-12-19T08:35:03.154Z,26.07
2018-12-19T08:37:32.233Z,25.20
2018-12-19T08:40:01.646Z,26.03
2018-12-19T08:42:31.074Z,25.20
2018-12-19T08:45:00.192Z,24.10
2018-12-19T08:47:29.303Z,24.13
2018-12-19T08:49:58.546Z,25.07
2018-12-19T08:52:27.739Z,24.20
2018-12-19T08:54:56.949Z,24.87
2018-12-19T08:57:27.145Z,24.47
2018-12-19T08:59:56.248Z,25.87
2018-12-19T09:02:25.560Z,26.00
2018-12-19T09:04:54.688Z,24.27
2018-12-19T09:07:23.898Z,23.60
2018-12-19T09:09:54.472Z,24.10
2018-12-19T09:12:23.721Z,23.63
2018-12-19T09:14:53.168Z,22.17
2018-12-19T09:17:22.750Z,21.70
2018-12-19T09:19:52.507Z,21.60
2018-12-19T09:22:22.369Z,21.83
2018-12-19T09:24:51.453Z,21.83
2018-12-19T09:27:20.794Z,22.47
2018-12-19T09:29:50.166Z,22.43
2018-12-19T09:32:19.789Z,21.10
2018-12-19T09:34:49.742Z,21.60
2018-12-19T09:37:18.919Z,20.47
2018-12-19T09:39:49.335Z,20.00
2018-12-19T09:42:18.399Z,21.07
2018-12-19T09:44:48.678Z,20.70
2018-12-19T09:47:17.970Z,20.60
2018-12-19T09:49:47.300Z,18.63
2018-12-19T09:52:16.859Z,18.47
2018-12-19T09:54:46.517Z,18.70
2018-12-19T09:57:16.229Z,19.83
2018-12-19T09:59:45.547Z,19.47
2018-12-19T10:02:14.812Z,20.03
2018-12-19T10:04:44.289Z,19.87
2018-12-19T10:07:13.599Z,19.70
2018-12-19T10:09:42.810Z,19.57
2018-12-19T10:12:12.057Z,18.40
2018-12-19T10:14:41.728Z,18.07
2018-12-19T10:17:12.078Z,19.33
2018-12-19T10:19:41.282Z,18.60
2018-12-19T10:22:10.629Z,18.67
2018-12-19T10:24:45.073Z,20.13
2018-12-19T10:27:19.201Z,19.23
2018-12-19T10:29:48.575Z,19.87
2018-12-19T10:32:19.014Z,20.23
2018-12-19T10:34:48.190Z,19.63
2018-12-19T10:37:17.593Z,19.53
2018-12-19T10:39:46.956Z,19.43
2018-12-19T10:42:16.139Z,19.50
2018-12-19T10:44:45.227Z,20.43
2018-12-19T10:47:14.233Z,20.23
2018-12-19T10:49:43.488Z,19.67
2018-12-19T10:52:12.725Z,19.20
2018-12-19T10:54:41.822Z,19.13
2018-12-19T10:57:10.926Z,19.10
2018-12-19T10:59:40.201Z,19.47
2018-12-19T11:02:09.816Z,19.57
2018-12-19T11:04:39.152Z,18.23
2018-12-19T11:07:08.273Z,18.57
2018-12-19T11:09:37.485Z,19.20
2018-12-19T11:12:07.121Z,18.43
2018-12-19T11:14:36.189Z,19.87
2018-12-19T11:17:05.742Z,19.07
2018-12-19T11:19:34.696Z,18.97
2018-12-19T11:22:04.038Z,18.40
2018-12-19T11:24:36.764Z,17.77
2018-12-19T11:27:12.135Z,18.27
2018-12-19T11:29:42.480Z,17.70
2018-12-19T11:32:11.445Z,18.33
2018-12-19T11:34:40.553Z,17.93
2018-12-19T11:37:09.886Z,17.57
2018-12-19T11:39:39.382Z,17.83
2018-12-19T11:42:08.546Z,17.23
2018-12-19T11:44:41.334Z,17.97
2018-12-19T11:47:10.694Z,18.03
2018-12-19T11:49:46.627Z,18.10
2018-12-19T11:52:15.690Z,19.20
2018-12-19T11:54:49.431Z,18.20
2018-12-19T11:57:19.348Z,17.77
2018-12-19T11:59:49.408Z,18.73
2018-12-19T12:02:18.887Z,19.17
2018-12-19T12:04:48.055Z,18.73
2018-12-19T12:07:17.414Z,17.80
2018-12-19T12:09:46.557Z,18.50
2018-12-19T12:12:15.755Z,18.43
2018-12-19T12:14:45.058Z,19.03
2018-12-19T12:17:14.484Z,18.63
2018-12-19T12:19:43.620Z,17.30
2018-12-19T12:22:12.765Z,18.10
2018-12-19T12:24:41.812Z,19.00
2018-12-19T12:27:11.436Z,18.10
2018-12-19T12:29:40.794Z,17.27
2018-12-19T12:32:10.679Z,17.73
2018-12-19T12:34:39.808Z,18.53
2018-12-19T12:37:08.924Z,18.30
2018-12-19T12:39:38.266Z,16.40
2018-12-19T12:42:07.613Z,16.90
2018-12-19T12:44:37.286Z,18.47
2018-12-19T12:47:06.484Z,18.07
2018-12-19T12:49:36.772Z,17.57
2018-12-19T12:52:05.874Z,17.17
2018-12-19T12:54:35.110Z,17.27
2018-12-19T12:57:04.127Z,18.77
2018-12-19T12:59:33.251Z,17.77
2018-12-19T13:02:02.259Z,19.03
2018-12-19T13:04:31.416Z,17.40
2018-12-19T13:07:00.697Z,16.27
2018-12-19T13:09:30.205Z,15.50
2018-12-19T13:11:59.489Z,17.80
2018-12-19T13:14:28.912Z,16.90
2018-12-19T13:16:58.188Z,16.47
2018-12-19T13:19:27.443Z,17.50
2018-12-19T13:21:56.502Z,17.07
2018-12-19T13:24:25.675Z,18.37
2018-12-19T13:26:54.765Z,17.50
2018-12-19T13:29:23.861Z,17.87
2018-12-19T13:31:53.486Z,18.83
2018-12-19T13:34:22.769Z,18.90
2018-12-19T13:36:51.934Z,18.30
2018-12-19T13:39:21.637Z,17.43
2018-12-19T13:41:50.865Z,18.37
2018-12-19T13:44:20.239Z,17.90
2018-12-19T13:46:49.571Z,17.13
2018-12-19T13:49:19.036Z,18.57
2018-12-19T13:51:48.384Z,19.17
2018-12-19T13:54:17.613Z,17.13
2018-12-19T13:56:47.123Z,16.67
2018-12-19T13:59:16.671Z,16.97
2018-12-19T14:01:46.485Z,19.17
2018-12-19T14:04:15.824Z,18.57
2018-12-19T14:06:45.212Z,17.90
2018-12-19T14:09:14.797Z,18.70
2018-12-19T14:11:44.127Z,17.33
2018-12-19T14:14:13.491Z,17.90
2018-12-19T14:16:42.681Z,17.47
2018-12-19T14:19:11.848Z,17.03
2018-12-19T14:21:41.155Z,18.27
2018-12-19T14:24:10.406Z,16.83
2018-12-19T14:26:39.671Z,16.23
2018-12-19T14:29:09.060Z,14.93
2018-12-19T14:31:38.383Z,15.93
2018-12-19T14:34:07.582Z,14.60
2018-12-19T14:36:37.087Z,14.13
2018-12-19T14:39:07.465Z,13.90
2018-12-19T14:41:39.440Z,14.40
2018-12-19T14:44:08.500Z,15.57
2018-12-19T14:46:38.059Z,13.77
2018-12-19T14:49:13.777Z,16.53
2018-12-19T14:51:38.303Z,14.87
2018-12-19T14:54:07.398Z,17.30
2018-12-19T14:56:36.393Z,16.27
2018-12-19T14:59:05.476Z,17.13
2018-12-19T15:01:34.645Z,16.77
2018-12-19T15:04:03.765Z,16.27
2018-12-19T15:06:32.879Z,15.90
2018-12-19T15:09:02.115Z,13.33
2018-12-19T15:11:31.413Z,14.17
2018-12-19T15:14:00.705Z,14.50
2018-12-19T15:16:29.970Z,17.20
2018-12-19T15:19:05.637Z,15.53
2018-12-19T15:21:35.047Z,16.83
2018-12-19T15:24:04.214Z,17.23
2018-12-19T15:26:33.288Z,15.60
2018-12-19T15:29:02.772Z,16.37
2018-12-19T15:31:32.083Z,17.23
2018-12-19T15:34:01.175Z,16.47
2018-12-19T15:36:32.630Z,15.70
2018-12-19T15:39:01.807Z,17.97
2018-12-19T15:41:31.880Z,17.30
2018-12-19T15:44:01.041Z,16.30
2018-12-19T15:46:30.156Z,15.97
2018-12-19T15:48:59.335Z,18.90
2018-12-19T15:51:29.687Z,16.93
2018-12-19T15:53:58.872Z,17.37
2018-12-19T15:56:28.344Z,17.37
2018-12-19T15:58:57.619Z,17.27
2018-12-19T16:01:26.731Z,17.73
2018-12-19T16:03:55.691Z,16.13
2018-12-19T16:06:24.727Z,16.20
2018-12-19T16:08:53.796Z,15.57
2018-12-19T16:11:22.877Z,14.93
2018-12-19T16:13:52.861Z,15.03
2018-12-19T16:16:21.819Z,17.03
2018-12-19T16:18:50.829Z,16.33
2018-12-19T16:21:19.913Z,18.37
2018-12-19T16:23:49.071Z,17.03
2018-12-19T16:26:18.313Z,16.83
2018-12-19T16:28:47.633Z,16.90
2018-12-19T16:31:17.050Z,18.90
2018-12-19T16:33:46.230Z,16.90
2018-12-19T16:36:15.362Z,16.33
2018-12-19T16:38:44.354Z,17.43
2018-12-19T16:41:13.354Z,19.10
2018-12-19T16:43:42.475Z,17.53
2018-12-19T16:46:11.626Z,16.27
2018-12-19T16:48:40.960Z,15.33
2018-12-19T16:51:10.018Z,17.53
2018-12-19T16:53:39.545Z,17.50
2018-12-19T16:56:08.544Z,16.83
2018-12-19T16:58:37.984Z,18.90
2018-12-19T17:01:07.564Z,17.80
2018-12-19T17:03:36.692Z,18.57
2018-12-19T17:06:05.688Z,17.47
2018-12-19T17:08:34.671Z,18.10
2018-12-19T17:11:03.759Z,16.63
2018-12-19T17:13:32.781Z,17.10
2018-12-19T17:16:03.894Z,18.23
2018-12-19T17:18:36.583Z,17.40
2018-12-19T17:21:05.860Z,18.57
2018-12-19T17:23:35.426Z,17.23
2018-12-19T17:26:06.470Z,18.83
2018-12-19T17:28:35.512Z,19.00
2018-12-19T17:31:04.657Z,18.63
2018-12-19T17:33:33.882Z,18.67
2018-12-19T17:36:02.944Z,17.13
2018-12-19T17:38:32.185Z,16.27
2018-12-19T17:41:01.267Z,17.27
2018-12-19T17:43:30.374Z,16.10
2018-12-19T17:45:59.313Z,15.87
2018-12-19T17:48:28.388Z,16.73
2018-12-19T17:50:57.474Z,17.20
2018-12-19T17:53:26.536Z,17.37
2018-12-19T17:55:55.685Z,17.40
2018-12-19T17:58:25.130Z,18.17
2018-12-19T18:00:54.712Z,19.30
2018-12-19T18:03:24.172Z,18.27
2018-12-19T18:05:53.783Z,17.37
2018-12-19T18:08:22.766Z,18.30
2018-12-19T18:10:51.814Z,18.43
2018-12-19T18:13:20.984Z,18.20
2018-12-19T18:15:50.058Z,18.67
2018-12-19T18:18:19.437Z,20.23
2018-12-19T18:20:48.431Z,20.23
2018-12-19T18:23:17.501Z,19.43
2018-12-19T18:25:46.468Z,20.10
2018-12-19T18:28:15.749Z,20.57
2018-12-19T18:30:45.495Z,20.33
2018-12-19T18:33:14.694Z,19.73
2018-12-19T18:35:43.902Z,18.87
2018-12-19T18:38:13.035Z,18.30
2018-12-19T18:40:43.222Z,18.17
2018-12-19T18:43:13.020Z,19.50
2018-12-19T18:45:44.071Z,19.80
2018-12-19T18:48:13.488Z,19.77
2018-12-19T18:50:42.620Z,20.47
2018-12-19T18:53:13.255Z,20.53
2018-12-19T18:55:43.254Z,19.33
2018-12-19T18:58:12.431Z,19.10
2018-12-19T19:00:44.007Z,19.87
2018-12-19T19:03:13.018Z,18.87
2018-12-19T19:05:42.028Z,19.33
2018-12-19T19:08:11.161Z,19.93
2018-12-19T19:10:40.323Z,19.37
2018-12-19T19:13:09.427Z,20.10
2018-12-19T19:15:38.616Z,18.87
2018-12-19T19:18:07.723Z,19.60
2018-12-19T19:20:36.994Z,22.00
2018-12-19T19:23:06.119Z,21.47
2018-12-19T19:25:35.370Z,21.13
2018-12-19T19:28:05.517Z,21.50
2018-12-19T19:30:34.628Z,22.23
2018-12-19T19:33:03.653Z,23.63
2018-12-19T19:35:32.649Z,21.87
2018-12-19T19:38:01.881Z,23.10
2018-12-19T19:40:30.926Z,24.80
2018-12-19T19:43:00.428Z,23.73
2018-12-19T19:45:29.794Z,21.37
2018-12-19T19:47:58.868Z,21.00
2018-12-19T19:50:28.516Z,22.73
2018-12-19T19:52:58.004Z,22.83
2018-12-19T19:55:27.552Z,23.73
2018-12-19T19:57:56.751Z,20.33
2018-12-19T20:00:28.971Z,22.60
2018-12-19T20:02:58.213Z,20.97
2018-12-19T20:05:27.381Z,20.03
2018-12-19T20:07:56.391Z,22.47
2018-12-19T20:10:25.585Z,20.37
2018-12-19T20:12:54.668Z,20.40
2018-12-19T20:15:25.948Z,19.87
2018-12-19T20:17:54.944Z,20.50
2018-12-19T20:20:29.430Z,19.90
2018-12-19T20:22:58.399Z,20.10
2018-12-19T20:25:27.484Z,19.57
2018-12-19T20:27:56.551Z,21.17
2018-12-19T20:30:25.750Z,20.43
2018-12-19T20:32:54.692Z,20.10
2018-12-19T20:35:23.811Z,20.40
2018-12-19T20:37:53.337Z,17.60
2018-12-19T20:40:22.435Z,19.00
2018-12-19T20:42:51.970Z,18.10
2018-12-19T20:45:21.047Z,20.20
2018-12-19T20:47:50.278Z,20.07
2018-12-19T20:50:19.625Z,19.90
2018-12-19T20:52:48.739Z,22.97
2018-12-19T20:55:19.914Z,20.63
2018-12-19T20:57:49.116Z,19.57
2018-12-19T21:00:18.250Z,18.57
2018-12-19T21:02:47.536Z,17.27
2018-12-19T21:05:16.644Z,24.20
2018-12-19T21:07:45.905Z,19.50
2018-12-19T21:10:14.898Z,21.50
2018-12-19T21:12:43.850Z,20.63
2018-12-19T21:15:12.886Z,20.23
2018-12-19T21:17:47.332Z,19.53
2018-12-19T21:21:47.155Z,20.40
2018-12-19T21:24:16.243Z,19.53
2018-12-19T21:26:45.242Z,19.33
2018-12-19T21:29:14.654Z,21.03
2018-12-19T21:31:43.980Z,20.27
2018-12-19T21:34:13.216Z,20.83
2018-12-19T21:36:42.255Z,20.50
2018-12-19T21:39:11.816Z,19.23
2018-12-19T21:41:41.640Z,19.60
2018-12-19T21:44:10.735Z,21.57
2018-12-19T21:46:39.802Z,22.03
2018-12-19T21:49:08.829Z,22.70
2018-12-19T21:51:38.020Z,21.57
2018-12-19T21:54:06.989Z,20.83
2018-12-19T21:56:36.241Z,25.53
2018-12-19T21:59:05.330Z,21.83
2018-12-19T22:01:34.420Z,20.73
2018-12-19T22:04:03.631Z,21.20
2018-12-19T22:06:32.763Z,22.07
2018-12-19T22:09:01.880Z,20.20
2018-12-19T22:11:31.002Z,20.80
2018-12-19T22:14:00.649Z,21.07
2018-12-19T22:16:35.477Z,22.00
2018-12-19T22:19:04.604Z,20.70
2018-12-19T22:21:33.562Z,20.57
2018-12-19T22:24:02.542Z,20.27
2018-12-19T22:26:31.801Z,21.13
2018-12-19T22:29:01.534Z,21.73
2018-12-19T22:31:30.665Z,21.80
2018-12-19T22:33:59.698Z,21.33
2018-12-19T22:36:28.894Z,20.43
2018-12-19T22:38:57.941Z,21.17
2018-12-19T22:41:27.073Z,21.40
2018-12-19T22:43:56.186Z,22.27
2018-12-19T22:46:25.344Z,21.20
2018-12-19T22:48:54.445Z,20.93
2018-12-19T22:51:23.815Z,21.13
2018-12-19T22:53:53.012Z,20.47
2018-12-19T22:56:22.197Z,23.43
2018-12-19T22:58:51.399Z,20.90
2018-12-19T23:01:25.801Z,20.50
2018-12-19T23:04:00.499Z,21.93
2018-12-19T23:06:29.606Z,21.87
2018-12-19T23:08:58.712Z,21.33
2018-12-19T23:11:28.911Z,21.90
2018-12-19T23:13:58.089Z,22.07
2018-12-19T23:16:27.927Z,22.30
2018-12-19T23:18:57.085Z,23.50
2018-12-19T23:21:26.155Z,21.73
2018-12-19T23:23:55.612Z,22.53
2018-12-19T23:26:24.820Z,22.30
2018-12-19T23:28:58.297Z,22.50
2018-12-19T23:31:28.071Z,23.13
2018-12-19T23:33:57.276Z,22.83
2018-12-19T23:36:26.398Z,22.43
2018-12-19T23:38:55.528Z,21.53
2018-12-19T23:41:24.800Z,21.87
2018-12-19T23:43:53.903Z,22.57
2018-12-19T23:46:23.776Z,22.73
2018-12-19T23:48:53.249Z,22.30
2018-12-19T23:51:22.402Z,22.53
2018-12-19T23:53:51.920Z,23.00
2018-12-19T23:56:21.157Z,22.03
2018-12-19T23:58:50.302Z,22.47
